sensor_id;sensor_type;location;lat;lon;timestamp;P1;durP1;ratioP1;P2;durP2;ratioP2
66139;SDS011;52945;51.908;8.364;2023-11-21T00:02:33;11.65;;;5.95;;
66139;SDS011;52945;51.908;8.364;2023-11-21T00:05:34;12.68;;;5.88;;
66139;SDS011;52945;51.908;8.364;2023-11-21T00:08:35;15.52;;;6.18;;
66139;SDS011;52945;51.908;8.364;2023-11-21T00:11:36;11.77;;;5.45;;
66139;SDS011;52945;51.908;8.364;2023-11-21T00:14:38;12.02;;;6.13;;
66139;SDS011;52945;51.908;8.364;2023-11-21T00:17:38;13.15;;;6.03;;
66139;SDS011;52945;51.908;8.364;2023-11-21T00:20:39;11.88;;;5.47;;
66139;SDS011;52945;51.908;8.364;2023-11-21T00:23:40;12.95;;;5.43;;
66139;SDS011;52945;51.908;8.364;2023-11-21T00:26:40;13.95;;;6.13;;
66139;SDS011;52945;51.908;8.364;2023-11-21T00:29:41;11.02;;;5.32;;
66139;SDS011;52945;51.908;8.364;2023-11-21T00:32:42;10.57;;;6.10;;
66139;SDS011;52945;51.908;8.364;2023-11-21T00:35:43;14.77;;;4.95;;
66139;SDS011;52945;51.908;8.364;2023-11-21T00:38:43;9.85;;;5.18;;
66139;SDS011;52945;51.908;8.364;2023-11-21T00:41:44;10.40;;;5.38;;
66139;SDS011;52945;51.908;8.364;2023-11-21T00:44:48;11.48;;;5.72;;
66139;SDS011;52945;51.908;8.364;2023-11-21T00:47:49;15.70;;;6.18;;
66139;SDS011;52945;51.908;8.364;2023-11-21T00:50:49;11.82;;;5.70;;
66139;SDS011;52945;51.908;8.364;2023-11-21T00:53:50;11.48;;;5.13;;
66139;SDS011;52945;51.908;8.364;2023-11-21T00:56:51;10.98;;;5.70;;
66139;SDS011;52945;51.908;8.364;2023-11-21T00:59:51;9.85;;;5.30;;
66139;SDS011;52945;51.908;8.364;2023-11-21T01:02:52;13.60;;;5.57;;
66139;SDS011;52945;51.908;8.364;2023-11-21T01:05:53;10.57;;;5.53;;
66139;SDS011;52945;51.908;8.364;2023-11-21T01:08:53;11.52;;;6.03;;
66139;SDS011;52945;51.908;8.364;2023-11-21T01:11:54;11.55;;;5.70;;
66139;SDS011;52945;51.908;8.364;2023-11-21T01:14:55;16.00;;;5.70;;
66139;SDS011;52945;51.908;8.364;2023-11-21T01:17:55;14.80;;;6.35;;
66139;SDS011;52945;51.908;8.364;2023-11-21T01:20:56;10.75;;;5.00;;
66139;SDS011;52945;51.908;8.364;2023-11-21T01:23:57;12.50;;;5.97;;
66139;SDS011;52945;51.908;8.364;2023-11-21T01:26:58;11.73;;;5.55;;
66139;SDS011;52945;51.908;8.364;2023-11-21T01:29:58;11.52;;;5.70;;
66139;SDS011;52945;51.908;8.364;2023-11-21T01:32:59;9.93;;;5.50;;
66139;SDS011;52945;51.908;8.364;2023-11-21T01:35:59;13.80;;;5.75;;
66139;SDS011;52945;51.908;8.364;2023-11-21T01:39:00;11.10;;;5.50;;
66139;SDS011;52945;51.908;8.364;2023-11-21T01:42:01;12.40;;;6.32;;
66139;SDS011;52945;51.908;8.364;2023-11-21T01:45:01;12.73;;;6.10;;
66139;SDS011;52945;51.908;8.364;2023-11-21T01:48:06;10.98;;;5.72;;
66139;SDS011;52945;51.908;8.364;2023-11-21T01:51:06;14.10;;;6.18;;
66139;SDS011;52945;51.908;8.364;2023-11-21T01:54:08;12.65;;;6.38;;
66139;SDS011;52945;51.908;8.364;2023-11-21T01:57:09;10.73;;;5.57;;
66139;SDS011;52945;51.908;8.364;2023-11-21T02:00:10;14.38;;;5.82;;
66139;SDS011;52945;51.908;8.364;2023-11-21T02:03:17;12.77;;;5.95;;
66139;SDS011;52945;51.908;8.364;2023-11-21T02:06:18;12.05;;;5.72;;
66139;SDS011;52945;51.908;8.364;2023-11-21T02:09:22;11.98;;;5.75;;
66139;SDS011;52945;51.908;8.364;2023-11-21T02:12:27;13.60;;;5.97;;
66139;SDS011;52945;51.908;8.364;2023-11-21T02:15:27;15.15;;;5.78;;
66139;SDS011;52945;51.908;8.364;2023-11-21T02:18:28;12.13;;;5.75;;
66139;SDS011;52945;51.908;8.364;2023-11-21T02:21:29;10.43;;;5.30;;
66139;SDS011;52945;51.908;8.364;2023-11-21T02:24:31;15.75;;;5.90;;
66139;SDS011;52945;51.908;8.364;2023-11-21T02:27:32;12.98;;;5.80;;
66139;SDS011;52945;51.908;8.364;2023-11-21T02:30:32;10.90;;;5.50;;
66139;SDS011;52945;51.908;8.364;2023-11-21T02:33:33;14.60;;;5.78;;
66139;SDS011;52945;51.908;8.364;2023-11-21T02:36:34;11.07;;;5.78;;
66139;SDS011;52945;51.908;8.364;2023-11-21T02:39:34;14.25;;;6.80;;
66139;SDS011;52945;51.908;8.364;2023-11-21T02:42:35;13.40;;;6.43;;
66139;SDS011;52945;51.908;8.364;2023-11-21T02:45:36;12.68;;;6.30;;
66139;SDS011;52945;51.908;8.364;2023-11-21T02:48:36;10.98;;;6.25;;
66139;SDS011;52945;51.908;8.364;2023-11-21T02:51:37;11.68;;;6.13;;
66139;SDS011;52945;51.908;8.364;2023-11-21T02:54:38;11.05;;;5.60;;
66139;SDS011;52945;51.908;8.364;2023-11-21T02:57:39;13.45;;;6.25;;
66139;SDS011;52945;51.908;8.364;2023-11-21T03:00:40;10.55;;;6.20;;
66139;SDS011;52945;51.908;8.364;2023-11-21T03:06:42;10.68;;;6.18;;
66139;SDS011;52945;51.908;8.364;2023-11-21T03:09:43;13.25;;;6.28;;
66139;SDS011;52945;51.908;8.364;2023-11-21T03:12:43;9.57;;;5.00;;
66139;SDS011;52945;51.908;8.364;2023-11-21T03:15:44;10.18;;;5.75;;
66139;SDS011;52945;51.908;8.364;2023-11-21T03:18:45;11.90;;;5.97;;
66139;SDS011;52945;51.908;8.364;2023-11-21T03:21:45;12.38;;;5.78;;
66139;SDS011;52945;51.908;8.364;2023-11-21T03:24:46;13.77;;;6.05;;
66139;SDS011;52945;51.908;8.364;2023-11-21T03:27:47;13.45;;;6.35;;
66139;SDS011;52945;51.908;8.364;2023-11-21T03:30:48;14.23;;;6.93;;
66139;SDS011;52945;51.908;8.364;2023-11-21T03:33:48;14.70;;;6.60;;
66139;SDS011;52945;51.908;8.364;2023-11-21T03:36:49;16.38;;;6.80;;
66139;SDS011;52945;51.908;8.364;2023-11-21T03:39:49;16.05;;;7.25;;
66139;SDS011;52945;51.908;8.364;2023-11-21T03:42:51;15.48;;;7.15;;
66139;SDS011;52945;51.908;8.364;2023-11-21T03:45:51;17.63;;;6.88;;
66139;SDS011;52945;51.908;8.364;2023-11-21T03:48:52;14.93;;;7.05;;
66139;SDS011;52945;51.908;8.364;2023-11-21T03:51:55;18.40;;;6.18;;
66139;SDS011;52945;51.908;8.364;2023-11-21T03:54:56;15.18;;;7.05;;
66139;SDS011;52945;51.908;8.364;2023-11-21T03:57:57;15.35;;;6.65;;
66139;SDS011;52945;51.908;8.364;2023-11-21T04:00:58;14.05;;;6.93;;
66139;SDS011;52945;51.908;8.364;2023-11-21T04:03:59;14.32;;;7.20;;
66139;SDS011;52945;51.908;8.364;2023-11-21T04:06:59;16.77;;;6.75;;
66139;SDS011;52945;51.908;8.364;2023-11-21T04:10:00;17.15;;;7.50;;
66139;SDS011;52945;51.908;8.364;2023-11-21T04:13:00;16.42;;;6.68;;
66139;SDS011;52945;51.908;8.364;2023-11-21T04:16:02;15.02;;;6.55;;
66139;SDS011;52945;51.908;8.364;2023-11-21T04:19:03;11.90;;;6.70;;
66139;SDS011;52945;51.908;8.364;2023-11-21T04:22:03;13.43;;;6.95;;
66139;SDS011;52945;51.908;8.364;2023-11-21T04:25:04;15.15;;;6.72;;
66139;SDS011;52945;51.908;8.364;2023-11-21T04:28:05;13.70;;;7.25;;
66139;SDS011;52945;51.908;8.364;2023-11-21T04:31:05;13.32;;;6.93;;
66139;SDS011;52945;51.908;8.364;2023-11-21T04:34:07;18.20;;;7.03;;
66139;SDS011;52945;51.908;8.364;2023-11-21T04:37:08;15.27;;;7.00;;
66139;SDS011;52945;51.908;8.364;2023-11-21T04:40:10;19.35;;;7.72;;
66139;SDS011;52945;51.908;8.364;2023-11-21T04:43:11;13.15;;;6.45;;
66139;SDS011;52945;51.908;8.364;2023-11-21T04:46:12;18.80;;;7.53;;
66139;SDS011;52945;51.908;8.364;2023-11-21T04:49:14;13.77;;;6.80;;
66139;SDS011;52945;51.908;8.364;2023-11-21T04:52:15;14.45;;;6.95;;
66139;SDS011;52945;51.908;8.364;2023-11-21T04:55:15;15.98;;;7.70;;
66139;SDS011;52945;51.908;8.364;2023-11-21T04:58:16;16.45;;;6.57;;
66139;SDS011;52945;51.908;8.364;2023-11-21T05:01:16;14.23;;;6.88;;
66139;SDS011;52945;51.908;8.364;2023-11-21T05:04:17;16.33;;;7.15;;
66139;SDS011;52945;51.908;8.364;2023-11-21T05:07:18;12.10;;;5.53;;
66139;SDS011;52945;51.908;8.364;2023-11-21T05:10:19;16.92;;;7.15;;
66139;SDS011;52945;51.908;8.364;2023-11-21T05:13:20;18.45;;;7.00;;
66139;SDS011;52945;51.908;8.364;2023-11-21T05:16:21;15.18;;;7.53;;
66139;SDS011;52945;51.908;8.364;2023-11-21T05:19:22;11.25;;;6.55;;
66139;SDS011;52945;51.908;8.364;2023-11-21T05:22:23;13.63;;;7.10;;
66139;SDS011;52945;51.908;8.364;2023-11-21T05:25:23;15.70;;;7.28;;
66139;SDS011;52945;51.908;8.364;2023-11-21T05:28:24;15.77;;;7.15;;
66139;SDS011;52945;51.908;8.364;2023-11-21T05:31:24;14.60;;;7.28;;
66139;SDS011;52945;51.908;8.364;2023-11-21T05:34:25;10.80;;;6.22;;
66139;SDS011;52945;51.908;8.364;2023-11-21T05:37:26;16.65;;;6.85;;
66139;SDS011;52945;51.908;8.364;2023-11-21T05:40:27;13.98;;;7.45;;
66139;SDS011;52945;51.908;8.364;2023-11-21T05:43:30;15.80;;;7.60;;
66139;SDS011;52945;51.908;8.364;2023-11-21T05:46:32;16.70;;;7.82;;
66139;SDS011;52945;51.908;8.364;2023-11-21T05:49:33;15.63;;;7.28;;
66139;SDS011;52945;51.908;8.364;2023-11-21T05:52:34;17.65;;;8.02;;
66139;SDS011;52945;51.908;8.364;2023-11-21T05:55:34;14.77;;;6.78;;
66139;SDS011;52945;51.908;8.364;2023-11-21T05:58:35;17.08;;;7.60;;
66139;SDS011;52945;51.908;8.364;2023-11-21T06:01:36;14.43;;;7.05;;
66139;SDS011;52945;51.908;8.364;2023-11-21T06:04:38;15.00;;;7.10;;
66139;SDS011;52945;51.908;8.364;2023-11-21T06:07:39;14.32;;;6.70;;
66139;SDS011;52945;51.908;8.364;2023-11-21T06:10:40;16.13;;;7.45;;
66139;SDS011;52945;51.908;8.364;2023-11-21T06:13:40;11.00;;;6.13;;
66139;SDS011;52945;51.908;8.364;2023-11-21T06:16:41;14.73;;;7.30;;
66139;SDS011;52945;51.908;8.364;2023-11-21T06:19:42;13.48;;;6.82;;
66139;SDS011;52945;51.908;8.364;2023-11-21T06:22:43;14.15;;;6.80;;
66139;SDS011;52945;51.908;8.364;2023-11-21T06:25:44;15.98;;;6.90;;
66139;SDS011;52945;51.908;8.364;2023-11-21T06:28:45;13.15;;;7.18;;
66139;SDS011;52945;51.908;8.364;2023-11-21T06:31:45;15.40;;;7.28;;
66139;SDS011;52945;51.908;8.364;2023-11-21T06:34:46;15.70;;;7.10;;
66139;SDS011;52945;51.908;8.364;2023-11-21T06:37:47;13.63;;;7.10;;
66139;SDS011;52945;51.908;8.364;2023-11-21T06:40:47;16.58;;;6.85;;
66139;SDS011;52945;51.908;8.364;2023-11-21T06:43:48;14.60;;;6.40;;
66139;SDS011;52945;51.908;8.364;2023-11-21T06:46:49;13.35;;;7.50;;
66139;SDS011;52945;51.908;8.364;2023-11-21T06:49:50;15.15;;;6.78;;
66139;SDS011;52945;51.908;8.364;2023-11-21T06:52:51;18.38;;;7.57;;
66139;SDS011;52945;51.908;8.364;2023-11-21T06:55:52;16.35;;;7.93;;
66139;SDS011;52945;51.908;8.364;2023-11-21T06:58:52;16.40;;;7.57;;
66139;SDS011;52945;51.908;8.364;2023-11-21T07:01:53;15.50;;;8.32;;
66139;SDS011;52945;51.908;8.364;2023-11-21T07:04:54;14.80;;;7.05;;
66139;SDS011;52945;51.908;8.364;2023-11-21T07:07:55;13.30;;;6.90;;
66139;SDS011;52945;51.908;8.364;2023-11-21T07:10:56;15.55;;;7.90;;
66139;SDS011;52945;51.908;8.364;2023-11-21T07:13:56;16.02;;;7.85;;
66139;SDS011;52945;51.908;8.364;2023-11-21T07:16:57;15.32;;;7.57;;
66139;SDS011;52945;51.908;8.364;2023-11-21T07:19:57;15.80;;;8.07;;
66139;SDS011;52945;51.908;8.364;2023-11-21T07:22:58;15.95;;;7.85;;
66139;SDS011;52945;51.908;8.364;2023-11-21T07:26:00;16.23;;;7.50;;
66139;SDS011;52945;51.908;8.364;2023-11-21T07:29:00;14.18;;;7.68;;
66139;SDS011;52945;51.908;8.364;2023-11-21T07:32:02;15.88;;;8.20;;
66139;SDS011;52945;51.908;8.364;2023-11-21T07:35:03;15.95;;;7.28;;
66139;SDS011;52945;51.908;8.364;2023-11-21T07:38:04;19.30;;;8.35;;
66139;SDS011;52945;51.908;8.364;2023-11-21T07:41:05;18.40;;;8.18;;
66139;SDS011;52945;51.908;8.364;2023-11-21T07:44:07;21.05;;;8.82;;
66139;SDS011;52945;51.908;8.364;2023-11-21T07:47:08;20.38;;;9.20;;
66139;SDS011;52945;51.908;8.364;2023-11-21T07:50:09;24.33;;;9.52;;
66139;SDS011;52945;51.908;8.364;2023-11-21T07:53:10;18.20;;;8.73;;
66139;SDS011;52945;51.908;8.364;2023-11-21T07:56:10;19.73;;;8.98;;
66139;SDS011;52945;51.908;8.364;2023-11-21T07:59:11;20.42;;;9.38;;
66139;SDS011;52945;51.908;8.364;2023-11-21T08:02:12;21.02;;;8.90;;
66139;SDS011;52945;51.908;8.364;2023-11-21T08:05:13;21.50;;;9.95;;
66139;SDS011;52945;51.908;8.364;2023-11-21T08:08:13;21.38;;;9.05;;
66139;SDS011;52945;51.908;8.364;2023-11-21T08:11:15;26.45;;;10.23;;
66139;SDS011;52945;51.908;8.364;2023-11-21T08:14:16;23.65;;;9.13;;
66139;SDS011;52945;51.908;8.364;2023-11-21T08:17:17;29.80;;;8.98;;
66139;SDS011;52945;51.908;8.364;2023-11-21T08:20:20;25.73;;;9.98;;
66139;SDS011;52945;51.908;8.364;2023-11-21T08:23:22;23.80;;;9.15;;
66139;SDS011;52945;51.908;8.364;2023-11-21T08:26:26;24.05;;;9.32;;
66139;SDS011;52945;51.908;8.364;2023-11-21T08:29:27;25.15;;;9.95;;
66139;SDS011;52945;51.908;8.364;2023-11-21T08:32:27;28.70;;;9.98;;
66139;SDS011;52945;51.908;8.364;2023-11-21T08:35:31;25.80;;;9.68;;
66139;SDS011;52945;51.908;8.364;2023-11-21T08:41:32;22.20;;;7.82;;
66139;SDS011;52945;51.908;8.364;2023-11-21T08:44:33;19.80;;;7.97;;
66139;SDS011;52945;51.908;8.364;2023-11-21T08:47:33;21.40;;;7.85;;
66139;SDS011;52945;51.908;8.364;2023-11-21T08:50:34;20.92;;;8.23;;
66139;SDS011;52945;51.908;8.364;2023-11-21T08:53:35;19.50;;;8.57;;
66139;SDS011;52945;51.908;8.364;2023-11-21T08:56:35;22.98;;;9.43;;
66139;SDS011;52945;51.908;8.364;2023-11-21T08:59:36;24.83;;;9.18;;
66139;SDS011;52945;51.908;8.364;2023-11-21T09:02:37;20.30;;;8.65;;
66139;SDS011;52945;51.908;8.364;2023-11-21T09:05:39;23.58;;;9.20;;
66139;SDS011;52945;51.908;8.364;2023-11-21T09:08:40;19.17;;;7.85;;
66139;SDS011;52945;51.908;8.364;2023-11-21T09:11:41;21.30;;;8.85;;
66139;SDS011;52945;51.908;8.364;2023-11-21T09:14:44;17.58;;;7.70;;
66139;SDS011;52945;51.908;8.364;2023-11-21T09:17:44;16.73;;;7.05;;
66139;SDS011;52945;51.908;8.364;2023-11-21T09:20:45;15.05;;;7.50;;
66139;SDS011;52945;51.908;8.364;2023-11-21T09:23:46;19.08;;;7.57;;
66139;SDS011;52945;51.908;8.364;2023-11-21T09:26:48;16.67;;;7.32;;
66139;SDS011;52945;51.908;8.364;2023-11-21T09:29:48;16.42;;;7.07;;
66139;SDS011;52945;51.908;8.364;2023-11-21T09:32:49;17.52;;;7.00;;
66139;SDS011;52945;51.908;8.364;2023-11-21T09:35:50;16.70;;;7.05;;
66139;SDS011;52945;51.908;8.364;2023-11-21T09:38:51;19.40;;;7.50;;
66139;SDS011;52945;51.908;8.364;2023-11-21T09:41:56;15.20;;;6.97;;
66139;SDS011;52945;51.908;8.364;2023-11-21T09:48:34;15.10;;;6.18;;
66139;SDS011;52945;51.908;8.364;2023-11-21T09:51:36;14.57;;;6.03;;
66139;SDS011;52945;51.908;8.364;2023-11-21T09:54:42;22.20;;;6.40;;
66139;SDS011;52945;51.908;8.364;2023-11-21T09:57:43;15.77;;;5.97;;
66139;SDS011;52945;51.908;8.364;2023-11-21T10:00:47;14.85;;;5.55;;
66139;SDS011;52945;51.908;8.364;2023-11-21T10:03:49;16.25;;;5.43;;
66139;SDS011;52945;51.908;8.364;2023-11-21T10:06:50;14.18;;;5.75;;
66139;SDS011;52945;51.908;8.364;2023-11-21T10:09:53;14.77;;;5.72;;
66139;SDS011;52945;51.908;8.364;2023-11-21T10:15:56;13.80;;;4.65;;
66139;SDS011;52945;51.908;8.364;2023-11-21T10:18:58;12.15;;;4.80;;
66139;SDS011;52945;51.908;8.364;2023-11-21T10:21:59;13.80;;;5.28;;
66139;SDS011;52945;51.908;8.364;2023-11-21T10:25:01;10.50;;;4.85;;
66139;SDS011;52945;51.908;8.364;2023-11-21T10:28:02;15.27;;;4.60;;
66139;SDS011;52945;51.908;8.364;2023-11-21T10:31:07;9.63;;;3.95;;
66139;SDS011;52945;51.908;8.364;2023-11-21T10:34:14;9.50;;;4.10;;
66139;SDS011;52945;51.908;8.364;2023-11-21T10:37:15;9.32;;;4.22;;
66139;SDS011;52945;51.908;8.364;2023-11-21T10:40:16;9.60;;;4.00;;
66139;SDS011;52945;51.908;8.364;2023-11-21T10:43:17;8.65;;;3.97;;
66139;SDS011;52945;51.908;8.364;2023-11-21T10:46:18;8.30;;;3.35;;
66139;SDS011;52945;51.908;8.364;2023-11-21T10:49:20;6.93;;;3.13;;
66139;SDS011;52945;51.908;8.364;2023-11-21T10:52:20;5.93;;;3.17;;
66139;SDS011;52945;51.908;8.364;2023-11-21T10:55:21;7.10;;;3.35;;
66139;SDS011;52945;51.908;8.364;2023-11-21T10:58:23;7.18;;;3.22;;
66139;SDS011;52945;51.908;8.364;2023-11-21T11:01:25;8.48;;;3.08;;
66139;SDS011;52945;51.908;8.364;2023-11-21T11:04:29;6.03;;;2.85;;
66139;SDS011;52945;51.908;8.364;2023-11-21T11:07:30;8.93;;;3.55;;
66139;SDS011;52945;51.908;8.364;2023-11-21T11:10:34;7.25;;;3.25;;
66139;SDS011;52945;51.908;8.364;2023-11-21T11:13:35;5.70;;;2.60;;
66139;SDS011;52945;51.908;8.364;2023-11-21T11:16:37;9.93;;;3.67;;
66139;SDS011;52945;51.908;8.364;2023-11-21T11:19:41;7.00;;;3.15;;
66139;SDS011;52945;51.908;8.364;2023-11-21T11:38:54;6.20;;;2.78;;
66139;SDS011;52945;51.908;8.364;2023-11-21T11:42:00;4.80;;;2.40;;
66139;SDS011;52945;51.908;8.364;2023-11-21T11:45:19;4.03;;;2.30;;
66139;SDS011;52945;51.908;8.364;2023-11-21T11:48:19;4.53;;;2.35;;
66139;SDS011;52945;51.908;8.364;2023-11-21T11:51:22;4.68;;;2.38;;
66139;SDS011;52945;51.908;8.364;2023-11-21T11:54:35;5.28;;;2.00;;
66139;SDS011;52945;51.908;8.364;2023-11-21T11:57:37;4.60;;;2.33;;
66139;SDS011;52945;51.908;8.364;2023-11-21T12:00:41;5.22;;;2.58;;
66139;SDS011;52945;51.908;8.364;2023-11-21T12:03:42;6.10;;;2.47;;
66139;SDS011;52945;51.908;8.364;2023-11-21T12:06:43;6.05;;;2.60;;
66139;SDS011;52945;51.908;8.364;2023-11-21T12:09:44;3.17;;;1.83;;
66139;SDS011;52945;51.908;8.364;2023-11-21T12:12:48;5.47;;;2.50;;
66139;SDS011;52945;51.908;8.364;2023-11-21T12:15:49;4.28;;;2.55;;
66139;SDS011;52945;51.908;8.364;2023-11-21T12:18:50;5.07;;;2.35;;
66139;SDS011;52945;51.908;8.364;2023-11-21T12:21:50;7.55;;;2.95;;
66139;SDS011;52945;51.908;8.364;2023-11-21T12:24:52;5.43;;;2.70;;
66139;SDS011;52945;51.908;8.364;2023-11-21T12:27:52;5.38;;;2.90;;
66139;SDS011;52945;51.908;8.364;2023-11-21T12:30:53;7.63;;;3.00;;
66139;SDS011;52945;51.908;8.364;2023-11-21T12:33:54;7.05;;;3.20;;
66139;SDS011;52945;51.908;8.364;2023-11-21T12:36:56;7.95;;;3.50;;
66139;SDS011;52945;51.908;8.364;2023-11-21T12:39:56;9.38;;;4.00;;
66139;SDS011;52945;51.908;8.364;2023-11-21T12:42:58;9.18;;;3.83;;
66139;SDS011;52945;51.908;8.364;2023-11-21T12:46:04;10.13;;;3.67;;
66139;SDS011;52945;51.908;8.364;2023-11-21T12:49:06;7.35;;;3.70;;
66139;SDS011;52945;51.908;8.364;2023-11-21T12:52:07;10.20;;;3.83;;
66139;SDS011;52945;51.908;8.364;2023-11-21T12:55:08;12.25;;;3.97;;
66139;SDS011;52945;51.908;8.364;2023-11-21T12:58:09;9.80;;;4.00;;
66139;SDS011;52945;51.908;8.364;2023-11-21T13:01:13;9.23;;;3.90;;
66139;SDS011;52945;51.908;8.364;2023-11-21T13:04:18;10.02;;;4.80;;
66139;SDS011;52945;51.908;8.364;2023-11-21T13:07:18;9.38;;;3.47;;
66139;SDS011;52945;51.908;8.364;2023-11-21T13:13:27;9.50;;;4.38;;
66139;SDS011;52945;51.908;8.364;2023-11-21T13:16:29;10.38;;;4.30;;
66139;SDS011;52945;51.908;8.364;2023-11-21T13:19:30;10.60;;;4.07;;
66139;SDS011;52945;51.908;8.364;2023-11-21T13:22:31;9.88;;;4.07;;
66139;SDS011;52945;51.908;8.364;2023-11-21T13:25:33;9.15;;;4.03;;
66139;SDS011;52945;51.908;8.364;2023-11-21T13:31:35;8.40;;;3.78;;
66139;SDS011;52945;51.908;8.364;2023-11-21T13:34:37;9.90;;;3.80;;
66139;SDS011;52945;51.908;8.364;2023-11-21T13:37:38;7.53;;;3.70;;
66139;SDS011;52945;51.908;8.364;2023-11-21T13:40:40;7.45;;;3.42;;
66139;SDS011;52945;51.908;8.364;2023-11-21T13:43:46;8.45;;;4.03;;
66139;SDS011;52945;51.908;8.364;2023-11-21T13:46:53;6.65;;;3.55;;
66139;SDS011;52945;51.908;8.364;2023-11-21T13:49:56;10.23;;;4.18;;
66139;SDS011;52945;51.908;8.364;2023-11-21T13:52:57;9.40;;;3.58;;
66139;SDS011;52945;51.908;8.364;2023-11-21T13:56:16;8.35;;;3.63;;
66139;SDS011;52945;51.908;8.364;2023-11-21T14:02:28;10.00;;;3.65;;
66139;SDS011;52945;51.908;8.364;2023-11-21T14:05:34;6.35;;;3.50;;
66139;SDS011;52945;51.908;8.364;2023-11-21T14:08:35;8.20;;;3.70;;
66139;SDS011;52945;51.908;8.364;2023-11-21T14:11:35;6.20;;;3.30;;
66139;SDS011;52945;51.908;8.364;2023-11-21T14:14:38;7.25;;;3.30;;
66139;SDS011;52945;51.908;8.364;2023-11-21T14:17:39;7.65;;;3.35;;
66139;SDS011;52945;51.908;8.364;2023-11-21T14:23:42;4.95;;;2.83;;
66139;SDS011;52945;51.908;8.364;2023-11-21T14:26:43;5.50;;;2.92;;
66139;SDS011;52945;51.908;8.364;2023-11-21T14:29:48;7.60;;;3.65;;
66139;SDS011;52945;51.908;8.364;2023-11-21T14:32:48;7.13;;;3.65;;
66139;SDS011;52945;51.908;8.364;2023-11-21T14:35:49;6.85;;;3.50;;
66139;SDS011;52945;51.908;8.364;2023-11-21T14:38:50;5.32;;;3.10;;
66139;SDS011;52945;51.908;8.364;2023-11-21T14:41:51;7.80;;;2.90;;
66139;SDS011;52945;51.908;8.364;2023-11-21T14:44:59;7.13;;;3.35;;
66139;SDS011;52945;51.908;8.364;2023-11-21T14:48:03;7.65;;;3.47;;
66139;SDS011;52945;51.908;8.364;2023-11-21T14:51:04;7.15;;;3.10;;
66139;SDS011;52945;51.908;8.364;2023-11-21T14:54:05;11.52;;;3.83;;
66139;SDS011;52945;51.908;8.364;2023-11-21T14:57:10;7.82;;;3.45;;
66139;SDS011;52945;51.908;8.364;2023-11-21T15:00:13;5.45;;;2.88;;
66139;SDS011;52945;51.908;8.364;2023-11-21T15:03:32;5.25;;;2.78;;
66139;SDS011;52945;51.908;8.364;2023-11-21T15:06:32;7.63;;;3.10;;
66139;SDS011;52945;51.908;8.364;2023-11-21T15:09:33;6.95;;;3.10;;
66139;SDS011;52945;51.908;8.364;2023-11-21T15:12:34;6.68;;;3.30;;
66139;SDS011;52945;51.908;8.364;2023-11-21T15:15:38;4.50;;;2.67;;
66139;SDS011;52945;51.908;8.364;2023-11-21T15:18:39;6.50;;;2.80;;
66139;SDS011;52945;51.908;8.364;2023-11-21T15:21:40;7.68;;;3.22;;
66139;SDS011;52945;51.908;8.364;2023-11-21T15:24:40;5.18;;;2.70;;
66139;SDS011;52945;51.908;8.364;2023-11-21T15:27:43;6.72;;;2.55;;
66139;SDS011;52945;51.908;8.364;2023-11-21T15:30:43;8.10;;;3.20;;
66139;SDS011;52945;51.908;8.364;2023-11-21T15:33:46;4.50;;;2.40;;
66139;SDS011;52945;51.908;8.364;2023-11-21T15:36:47;6.70;;;3.33;;
66139;SDS011;52945;51.908;8.364;2023-11-21T15:39:52;7.65;;;3.00;;
66139;SDS011;52945;51.908;8.364;2023-11-21T15:42:53;8.70;;;3.60;;
66139;SDS011;52945;51.908;8.364;2023-11-21T15:45:54;7.28;;;3.45;;
66139;SDS011;52945;51.908;8.364;2023-11-21T15:48:55;7.75;;;3.53;;
66139;SDS011;52945;51.908;8.364;2023-11-21T15:51:56;9.13;;;4.47;;
66139;SDS011;52945;51.908;8.364;2023-11-21T15:54:59;7.90;;;3.70;;
66139;SDS011;52945;51.908;8.364;2023-11-21T15:57:59;7.63;;;3.83;;
66139;SDS011;52945;51.908;8.364;2023-11-21T16:01:03;7.20;;;3.70;;
66139;SDS011;52945;51.908;8.364;2023-11-21T16:04:04;5.38;;;3.15;;
66139;SDS011;52945;51.908;8.364;2023-11-21T16:07:05;6.78;;;3.60;;
66139;SDS011;52945;51.908;8.364;2023-11-21T16:10:07;6.03;;;3.22;;
66139;SDS011;52945;51.908;8.364;2023-11-21T16:13:10;7.05;;;3.45;;
66139;SDS011;52945;51.908;8.364;2023-11-21T16:16:11;5.55;;;3.33;;
66139;SDS011;52945;51.908;8.364;2023-11-21T16:19:12;11.80;;;3.63;;
66139;SDS011;52945;51.908;8.364;2023-11-21T16:22:13;8.05;;;3.75;;
66139;SDS011;52945;51.908;8.364;2023-11-21T16:25:14;5.88;;;3.00;;
66139;SDS011;52945;51.908;8.364;2023-11-21T16:28:15;5.57;;;3.35;;
66139;SDS011;52945;51.908;8.364;2023-11-21T16:31:22;6.65;;;3.45;;
66139;SDS011;52945;51.908;8.364;2023-11-21T16:34:23;14.45;;;4.20;;
66139;SDS011;52945;51.908;8.364;2023-11-21T16:37:24;8.50;;;3.60;;
66139;SDS011;52945;51.908;8.364;2023-11-21T16:40:24;8.15;;;4.28;;
66139;SDS011;52945;51.908;8.364;2023-11-21T16:43:25;6.18;;;3.63;;
66139;SDS011;52945;51.908;8.364;2023-11-21T16:46:26;7.85;;;3.25;;
66139;SDS011;52945;51.908;8.364;2023-11-21T16:49:26;6.68;;;3.50;;
66139;SDS011;52945;51.908;8.364;2023-11-21T16:52:29;7.25;;;3.30;;
66139;SDS011;52945;51.908;8.364;2023-11-21T16:55:30;5.88;;;3.17;;
66139;SDS011;52945;51.908;8.364;2023-11-21T16:58:31;6.78;;;3.08;;
66139;SDS011;52945;51.908;8.364;2023-11-21T17:01:33;6.57;;;3.58;;
66139;SDS011;52945;51.908;8.364;2023-11-21T17:04:33;8.10;;;3.78;;
66139;SDS011;52945;51.908;8.364;2023-11-21T17:07:34;8.30;;;3.42;;
66139;SDS011;52945;51.908;8.364;2023-11-21T17:10:35;9.57;;;3.63;;
66139;SDS011;52945;51.908;8.364;2023-11-21T17:13:35;8.95;;;4.10;;
66139;SDS011;52945;51.908;8.364;2023-11-21T17:16:36;7.68;;;3.65;;
66139;SDS011;52945;51.908;8.364;2023-11-21T17:19:37;6.82;;;3.78;;
66139;SDS011;52945;51.908;8.364;2023-11-21T17:22:38;6.35;;;3.75;;
66139;SDS011;52945;51.908;8.364;2023-11-21T17:25:40;6.93;;;3.42;;
66139;SDS011;52945;51.908;8.364;2023-11-21T17:28:41;8.35;;;3.38;;
66139;SDS011;52945;51.908;8.364;2023-11-21T17:31:45;6.50;;;3.33;;
66139;SDS011;52945;51.908;8.364;2023-11-21T17:34:46;7.93;;;3.63;;
66139;SDS011;52945;51.908;8.364;2023-11-21T17:37:48;8.07;;;3.90;;
66139;SDS011;52945;51.908;8.364;2023-11-21T17:40:48;7.10;;;3.25;;
66139;SDS011;52945;51.908;8.364;2023-11-21T17:43:49;7.65;;;4.00;;
66139;SDS011;52945;51.908;8.364;2023-11-21T17:46:50;7.38;;;3.33;;
66139;SDS011;52945;51.908;8.364;2023-11-21T17:49:51;9.48;;;4.13;;
66139;SDS011;52945;51.908;8.364;2023-11-21T17:52:51;10.38;;;4.75;;
66139;SDS011;52945;51.908;8.364;2023-11-21T17:55:54;8.55;;;3.95;;
66139;SDS011;52945;51.908;8.364;2023-11-21T17:58:54;7.75;;;3.88;;
66139;SDS011;52945;51.908;8.364;2023-11-21T18:01:56;9.77;;;4.10;;
66139;SDS011;52945;51.908;8.364;2023-11-21T18:04:57;8.60;;;3.88;;
66139;SDS011;52945;51.908;8.364;2023-11-21T18:08:00;7.57;;;3.40;;
66139;SDS011;52945;51.908;8.364;2023-11-21T18:11:01;11.43;;;3.40;;
66139;SDS011;52945;51.908;8.364;2023-11-21T18:14:04;6.15;;;3.10;;
66139;SDS011;52945;51.908;8.364;2023-11-21T18:17:10;6.90;;;3.22;;
66139;SDS011;52945;51.908;8.364;2023-11-21T18:20:10;3.63;;;2.53;;
66139;SDS011;52945;51.908;8.364;2023-11-21T18:23:11;5.70;;;3.08;;
66139;SDS011;52945;51.908;8.364;2023-11-21T18:26:15;7.78;;;3.50;;
66139;SDS011;52945;51.908;8.364;2023-11-21T18:29:17;7.30;;;3.30;;
66139;SDS011;52945;51.908;8.364;2023-11-21T18:32:19;6.72;;;3.33;;
66139;SDS011;52945;51.908;8.364;2023-11-21T18:35:22;6.95;;;3.38;;
66139;SDS011;52945;51.908;8.364;2023-11-21T18:38:23;5.93;;;3.10;;
66139;SDS011;52945;51.908;8.364;2023-11-21T18:41:24;6.80;;;3.58;;
66139;SDS011;52945;51.908;8.364;2023-11-21T18:44:24;7.13;;;3.28;;
66139;SDS011;52945;51.908;8.364;2023-11-21T18:47:26;7.72;;;3.22;;